sensor_id;sensor_type;location;lat;lon;timestamp;pressure;altitude;pressure_sealevel;temperature;humidity
5691;BME280;2870;42.680;23.364;2023-04-08T00:00:05;95183.97;;;6.44;69.51
5691;BME280;2870;42.680;23.364;2023-04-08T00:02:32;95204.78;;;6.56;70.10
5691;BME280;2870;42.680;23.364;2023-04-08T00:04:59;95199.22;;;6.56;69.92
5691;BME280;2870;42.680;23.364;2023-04-08T00:07:26;95204.47;;;6.59;70.22
5691;BME280;2870;42.680;23.364;2023-04-08T00:09:52;95208.78;;;6.60;70.55
5691;BME280;2870;42.680;23.364;2023-04-08T00:12:19;95216.38;;;6.60;70.37
5691;BME280;2870;42.680;23.364;2023-04-08T00:14:48;95210.44;;;6.50;70.57
5691;BME280;2870;42.680;23.364;2023-04-08T00:17:14;95210.91;;;6.54;70.98
5691;BME280;2870;42.680;23.364;2023-04-08T00:19:42;95206.94;;;6.63;70.25
5691;BME280;2870;42.680;23.364;2023-04-08T00:22:09;95206.09;;;6.68;69.23
5691;BME280;2870;42.680;23.364;2023-04-08T00:24:36;95205.22;;;6.60;70.63
5691;BME280;2870;42.680;23.364;2023-04-08T00:27:03;95210.16;;;6.54;69.06
5691;BME280;2870;42.680;23.364;2023-04-08T00:29:29;95207.28;;;6.41;70.26
5691;BME280;2870;42.680;23.364;2023-04-08T00:31:58;95204.72;;;6.75;69.60
5691;BME280;2870;42.680;23.364;2023-04-08T00:34:25;95203.28;;;6.55;70.32
5691;BME280;2870;42.680;23.364;2023-04-08T00:36:51;95212.13;;;6.72;68.63
5691;BME280;2870;42.680;23.364;2023-04-08T00:39:18;95204.41;;;6.46;69.25
5691;BME280;2870;42.680;23.364;2023-04-08T00:41:45;95206.88;;;6.36;69.91
5691;BME280;2870;42.680;23.364;2023-04-08T00:44:12;95209.25;;;6.14;70.09
5691;BME280;2870;42.680;23.364;2023-04-08T00:46:39;95203.94;;;6.29;68.81
5691;BME280;2870;42.680;23.364;2023-04-08T00:49:07;95206.13;;;6.36;68.58
5691;BME280;2870;42.680;23.364;2023-04-08T00:51:34;95214.47;;;6.36;68.68
5691;BME280;2870;42.680;23.364;2023-04-08T00:54:01;95211.50;;;6.15;69.55
5691;BME280;2870;42.680;23.364;2023-04-08T00:56:29;95212.25;;;6.16;70.33
5691;BME280;2870;42.680;23.364;2023-04-08T00:58:58;95208.03;;;6.09;70.52
5691;BME280;2870;42.680;23.364;2023-04-08T01:01:32;95215.84;;;6.10;70.94
5691;BME280;2870;42.680;23.364;2023-04-08T01:04:04;95215.72;;;6.03;70.62
5691;BME280;2870;42.680;23.364;2023-04-08T01:06:39;95219.47;;;6.05;71.02
5691;BME280;2870;42.680;23.364;2023-04-08T01:09:07;95218.88;;;5.94;71.69
5691;BME280;2870;42.680;23.364;2023-04-08T01:11:35;95222.41;;;5.94;71.86
5691;BME280;2870;42.680;23.364;2023-04-08T01:14:05;95222.22;;;5.87;72.36
5691;BME280;2870;42.680;23.364;2023-04-08T01:16:36;95225.19;;;5.94;71.49
5691;BME280;2870;42.680;23.364;2023-04-08T01:19:05;95217.22;;;6.04;70.92
5691;BME280;2870;42.680;23.364;2023-04-08T01:21:36;95217.00;;;6.02;71.46
5691;BME280;2870;42.680;23.364;2023-04-08T01:24:07;95214.34;;;5.91;71.97
5691;BME280;2870;42.680;23.364;2023-04-08T01:26:39;95215.25;;;5.99;71.78
5691;BME280;2870;42.680;23.364;2023-04-08T01:29:07;95212.78;;;6.14;72.41
5691;BME280;2870;42.680;23.364;2023-04-08T01:31:35;95216.72;;;6.37;71.17
5691;BME280;2870;42.680;23.364;2023-04-08T01:34:04;95209.22;;;6.32;71.46
5691;BME280;2870;42.680;23.364;2023-04-08T01:36:32;95215.97;;;6.69;69.43
5691;BME280;2870;42.680;23.364;2023-04-08T01:39:01;95213.56;;;6.47;70.59
5691;BME280;2870;42.680;23.364;2023-04-08T01:41:30;95220.94;;;6.44;70.46
5691;BME280;2870;42.680;23.364;2023-04-08T01:43:59;95219.16;;;6.60;69.86
5691;BME280;2870;42.680;23.364;2023-04-08T01:46:26;95225.22;;;6.45;71.03
5691;BME280;2870;42.680;23.364;2023-04-08T01:48:54;95221.03;;;6.01;71.21
5691;BME280;2870;42.680;23.364;2023-04-08T01:51:22;95224.97;;;5.92;72.18
5691;BME280;2870;42.680;23.364;2023-04-08T01:53:49;95197.53;;;5.77;72.03
5691;BME280;2870;42.680;23.364;2023-04-08T01:56:16;95224.59;;;6.20;72.05
5691;BME280;2870;42.680;23.364;2023-04-08T01:58:49;95232.03;;;6.63;70.99
5691;BME280;2870;42.680;23.364;2023-04-08T02:01:20;95229.03;;;6.61;70.14
5691;BME280;2870;42.680;23.364;2023-04-08T02:03:49;95227.66;;;6.35;70.32
5691;BME280;2870;42.680;23.364;2023-04-08T02:06:17;95235.13;;;6.27;70.36
5691;BME280;2870;42.680;23.364;2023-04-08T02:08:44;95238.41;;;6.45;69.54
5691;BME280;2870;42.680;23.364;2023-04-08T02:11:11;95237.22;;;6.21;70.62
5691;BME280;2870;42.680;23.364;2023-04-08T02:13:37;95244.44;;;6.49;72.10
5691;BME280;2870;42.680;23.364;2023-04-08T02:16:10;95241.44;;;6.47;72.45
5691;BME280;2870;42.680;23.364;2023-04-08T02:18:45;95247.00;;;6.47;72.89
5691;BME280;2870;42.680;23.364;2023-04-08T02:21:17;95241.22;;;6.58;70.33
5691;BME280;2870;42.680;23.364;2023-04-08T02:23:49;95247.44;;;6.51;71.88
5691;BME280;2870;42.680;23.364;2023-04-08T02:26:16;95246.81;;;6.58;71.67
5691;BME280;2870;42.680;23.364;2023-04-08T02:28:44;95249.94;;;6.68;70.49
5691;BME280;2870;42.680;23.364;2023-04-08T02:31:16;95247.53;;;6.77;69.89
5691;BME280;2870;42.680;23.364;2023-04-08T02:33:44;95241.50;;;6.73;70.05
5691;BME280;2870;42.680;23.364;2023-04-08T02:36:13;95252.66;;;6.73;69.43
5691;BME280;2870;42.680;23.364;2023-04-08T02:38:41;95248.53;;;6.61;70.34
5691;BME280;2870;42.680;23.364;2023-04-08T02:41:08;95254.56;;;6.65;69.87
5691;BME280;2870;42.680;23.364;2023-04-08T02:43:34;95249.34;;;6.43;70.53
5691;BME280;2870;42.680;23.364;2023-04-08T02:46:01;95247.16;;;6.35;71.76
5691;BME280;2870;42.680;23.364;2023-04-08T02:48:28;95240.22;;;6.23;73.38
5691;BME280;2870;42.680;23.364;2023-04-08T02:50:56;95244.16;;;6.15;73.59
5691;BME280;2870;42.680;23.364;2023-04-08T02:53:23;95251.53;;;6.12;74.12
5691;BME280;2870;42.680;23.364;2023-04-08T02:55:50;95240.66;;;5.90;75.82
5691;BME280;2870;42.680;23.364;2023-04-08T02:58:18;95240.78;;;5.78;75.97
5691;BME280;2870;42.680;23.364;2023-04-08T03:00:45;95242.81;;;6.02;76.35
5691;BME280;2870;42.680;23.364;2023-04-08T03:03:12;95241.13;;;6.31;74.57
5691;BME280;2870;42.680;23.364;2023-04-08T03:05:39;95248.28;;;6.27;74.69
5691;BME280;2870;42.680;23.364;2023-04-08T03:08:07;95256.50;;;6.00;75.38
5691;BME280;2870;42.680;23.364;2023-04-08T03:10:34;95246.09;;;6.01;75.54
5691;BME280;2870;42.680;23.364;2023-04-08T03:13:01;95242.81;;;6.02;76.33
5691;BME280;2870;42.680;23.364;2023-04-08T03:15:28;95248.13;;;6.00;76.96
5691;BME280;2870;42.680;23.364;2023-04-08T03:17:54;95247.47;;;5.94;76.73
5691;BME280;2870;42.680;23.364;2023-04-08T03:20:21;95245.28;;;6.06;76.51
5691;BME280;2870;42.680;23.364;2023-04-08T03:22:48;95238.59;;;5.96;76.48
5691;BME280;2870;42.680;23.364;2023-04-08T03:25:16;95239.53;;;5.79;77.75
5691;BME280;2870;42.680;23.364;2023-04-08T03:27:43;95241.94;;;5.70;77.08
5691;BME280;2870;42.680;23.364;2023-04-08T03:30:10;95241.41;;;5.71;79.10
5691;BME280;2870;42.680;23.364;2023-04-08T03:32:37;95244.56;;;5.81;78.35
5691;BME280;2870;42.680;23.364;2023-04-08T03:35:05;95249.59;;;5.82;78.18
5691;BME280;2870;42.680;23.364;2023-04-08T03:37:32;95248.84;;;5.63;77.70
5691;BME280;2870;42.680;23.364;2023-04-08T03:39:58;95250.50;;;5.72;77.66
5691;BME280;2870;42.680;23.364;2023-04-08T03:42:27;95254.50;;;5.76;77.84
5691;BME280;2870;42.680;23.364;2023-04-08T03:44:54;95240.50;;;5.63;77.25
5691;BME280;2870;42.680;23.364;2023-04-08T03:47:21;95248.16;;;5.57;77.29
5691;BME280;2870;42.680;23.364;2023-04-08T03:49:49;95251.84;;;5.84;76.44
5691;BME280;2870;42.680;23.364;2023-04-08T03:52:18;95249.84;;;5.84;76.89
5691;BME280;2870;42.680;23.364;2023-04-08T03:54:44;95251.44;;;5.55;76.73
5691;BME280;2870;42.680;23.364;2023-04-08T03:57:11;95247.81;;;5.42;76.39
5691;BME280;2870;42.680;23.364;2023-04-08T03:59:39;95250.06;;;5.68;75.93
5691;BME280;2870;42.680;23.364;2023-04-08T04:02:06;95238.41;;;5.69;75.92
5691;BME280;2870;42.680;23.364;2023-04-08T04:04:33;95236.69;;;5.42;77.43
5691;BME280;2870;42.680;23.364;2023-04-08T04:07:01;95246.66;;;5.31;78.30
5691;BME280;2870;42.680;23.364;2023-04-08T04:09:28;95233.00;;;5.34;77.99
5691;BME280;2870;42.680;23.364;2023-04-08T04:11:54;95243.97;;;5.69;76.24
5691;BME280;2870;42.680;23.364;2023-04-08T04:14:21;95240.66;;;5.71;76.58
5691;BME280;2870;42.680;23.364;2023-04-08T04:16:50;95239.44;;;5.66;77.28
5691;BME280;2870;42.680;23.364;2023-04-08T04:19:17;95239.28;;;5.77;76.91
5691;BME280;2870;42.680;23.364;2023-04-08T04:21:44;95252.78;;;5.49;77.51
5691;BME280;2870;42.680;23.364;2023-04-08T04:24:10;95253.19;;;5.58;77.47
5691;BME280;2870;42.680;23.364;2023-04-08T04:26:39;95260.78;;;5.58;77.19
5691;BME280;2870;42.680;23.364;2023-04-08T04:29:06;95258.22;;;5.60;76.82
5691;BME280;2870;42.680;23.364;2023-04-08T04:31:33;95265.19;;;5.48;77.04
5691;BME280;2870;42.680;23.364;2023-04-08T04:34:01;95264.84;;;5.57;77.39
5691;BME280;2870;42.680;23.364;2023-04-08T04:36:28;95266.06;;;5.62;76.21
5691;BME280;2870;42.680;23.364;2023-04-08T04:38:55;95261.63;;;5.72;74.20
5691;BME280;2870;42.680;23.364;2023-04-08T04:41:22;95264.59;;;5.79;74.02
5691;BME280;2870;42.680;23.364;2023-04-08T04:43:49;95267.00;;;5.89;73.78
5691;BME280;2870;42.680;23.364;2023-04-08T04:46:16;95266.19;;;6.13;73.39
5691;BME280;2870;42.680;23.364;2023-04-08T04:48:42;95264.28;;;6.07;72.43
5691;BME280;2870;42.680;23.364;2023-04-08T04:51:10;95255.66;;;6.05;71.71
5691;BME280;2870;42.680;23.364;2023-04-08T04:53:37;95254.69;;;6.22;71.39
5691;BME280;2870;42.680;23.364;2023-04-08T04:56:04;95260.03;;;6.01;71.39
5691;BME280;2870;42.680;23.364;2023-04-08T04:58:31;95266.19;;;5.94;71.39
5691;BME280;2870;42.680;23.364;2023-04-08T05:00:58;95260.66;;;5.88;71.15
5691;BME280;2870;42.680;23.364;2023-04-08T05:03:24;95265.69;;;6.14;72.27
5691;BME280;2870;42.680;23.364;2023-04-08T05:05:52;95274.41;;;6.24;69.33
5691;BME280;2870;42.680;23.364;2023-04-08T05:08:20;95274.78;;;6.33;70.04
5691;BME280;2870;42.680;23.364;2023-04-08T05:10:48;95269.75;;;6.32;69.73
5691;BME280;2870;42.680;23.364;2023-04-08T05:13:15;95249.06;;;5.84;70.43
5691;BME280;2870;42.680;23.364;2023-04-08T05:15:42;95267.31;;;5.85;71.68
5691;BME280;2870;42.680;23.364;2023-04-08T05:18:10;95273.50;;;6.34;70.96
5691;BME280;2870;42.680;23.364;2023-04-08T05:20:36;95269.97;;;6.34;70.10
5691;BME280;2870;42.680;23.364;2023-04-08T05:23:03;95276.97;;;6.41;70.27
5691;BME280;2870;42.680;23.364;2023-04-08T05:25:31;95272.16;;;6.22;70.75
5691;BME280;2870;42.680;23.364;2023-04-08T05:27:58;95270.94;;;5.99;72.57
5691;BME280;2870;42.680;23.364;2023-04-08T05:30:25;95276.38;;;6.10;73.50
5691;BME280;2870;42.680;23.364;2023-04-08T05:32:52;95269.59;;;6.05;72.97
5691;BME280;2870;42.680;23.364;2023-04-08T05:35:19;95265.03;;;5.83;73.14
5691;BME280;2870;42.680;23.364;2023-04-08T05:37:46;95281.72;;;6.08;72.89
5691;BME280;2870;42.680;23.364;2023-04-08T05:40:13;95279.22;;;6.23;72.48
5691;BME280;2870;42.680;23.364;2023-04-08T05:42:41;95250.94;;;6.19;72.46
5691;BME280;2870;42.680;23.364;2023-04-08T05:45:08;95276.63;;;6.63;73.41
5691;BME280;2870;42.680;23.364;2023-04-08T05:47:35;95276.28;;;6.85;72.24
5691;BME280;2870;42.680;23.364;2023-04-08T05:50:02;95271.16;;;6.89;72.75
5691;BME280;2870;42.680;23.364;2023-04-08T05:52:29;95269.19;;;6.84;72.93
5691;BME280;2870;42.680;23.364;2023-04-08T05:54:56;95273.34;;;7.10;69.16
5691;BME280;2870;42.680;23.364;2023-04-08T05:57:23;95271.81;;;7.09;70.99
5691;BME280;2870;42.680;23.364;2023-04-08T05:59:51;95279.34;;;7.01;70.66
5691;BME280;2870;42.680;23.364;2023-04-08T06:02:18;95267.41;;;6.87;70.09
5691;BME280;2870;42.680;23.364;2023-04-08T06:04:45;95274.38;;;6.94;69.91
5691;BME280;2870;42.680;23.364;2023-04-08T06:07:12;95273.75;;;7.01;69.97
5691;BME280;2870;42.680;23.364;2023-04-08T06:09:39;95268.63;;;7.18;69.33
5691;BME280;2870;42.680;23.364;2023-04-08T06:12:05;95266.41;;;7.16;69.48
5691;BME280;2870;42.680;23.364;2023-04-08T06:14:32;95275.66;;;7.64;69.79
5691;BME280;2870;42.680;23.364;2023-04-08T06:17:00;95262.44;;;7.52;68.11
5691;BME280;2870;42.680;23.364;2023-04-08T06:19:27;95266.75;;;7.66;68.93
5691;BME280;2870;42.680;23.364;2023-04-08T06:21:54;95271.25;;;7.42;70.04
5691;BME280;2870;42.680;23.364;2023-04-08T06:24:23;95276.19;;;7.50;70.19
5691;BME280;2870;42.680;23.364;2023-04-08T06:26:51;95268.50;;;8.16;68.23
5691;BME280;2870;42.680;23.364;2023-04-08T06:29:18;95267.03;;;8.02;68.70
5691;BME280;2870;42.680;23.364;2023-04-08T06:31:45;95273.59;;;7.91;68.76
5691;BME280;2870;42.680;23.364;2023-04-08T06:34:13;95272.22;;;7.85;68.86
5691;BME280;2870;42.680;23.364;2023-04-08T06:36:40;95272.94;;;7.98;68.58
5691;BME280;2870;42.680;23.364;2023-04-08T06:39:07;95279.16;;;8.05;68.76
5691;BME280;2870;42.680;23.364;2023-04-08T06:41:34;95274.53;;;8.20;69.13
5691;BME280;2870;42.680;23.364;2023-04-08T06:44:01;95279.56;;;8.35;69.69
5691;BME280;2870;42.680;23.364;2023-04-08T06:46:28;95282.00;;;7.78;70.28
5691;BME280;2870;42.680;23.364;2023-04-08T06:48:55;95262.88;;;7.95;69.50
5691;BME280;2870;42.680;23.364;2023-04-08T06:51:23;95270.03;;;8.17;69.16
5691;BME280;2870;42.680;23.364;2023-04-08T06:53:50;95278.06;;;8.21;69.87
5691;BME280;2870;42.680;23.364;2023-04-08T06:56:16;95286.22;;;8.32;70.69
5691;BME280;2870;42.680;23.364;2023-04-08T06:58:45;95284.72;;;8.31;70.24
5691;BME280;2870;42.680;23.364;2023-04-08T07:01:12;95280.84;;;8.34;69.79
5691;BME280;2870;42.680;23.364;2023-04-08T07:03:40;95279.66;;;8.43;69.26
5691;BME280;2870;42.680;23.364;2023-04-08T07:06:07;95295.63;;;8.56;69.12
5691;BME280;2870;42.680;23.364;2023-04-08T07:08:35;95283.81;;;8.63;69.40
5691;BME280;2870;42.680;23.364;2023-04-08T07:11:03;95262.97;;;8.50;68.74
5691;BME280;2870;42.680;23.364;2023-04-08T07:13:30;95284.22;;;8.88;68.10
5691;BME280;2870;42.680;23.364;2023-04-08T07:15:57;95280.50;;;8.85;67.71
5691;BME280;2870;42.680;23.364;2023-04-08T07:18:23;95291.41;;;8.96;68.29
5691;BME280;2870;42.680;23.364;2023-04-08T07:20:51;95287.44;;;9.13;66.97
5691;BME280;2870;42.680;23.364;2023-04-08T07:23:18;95288.19;;;9.34;66.56
5691;BME280;2870;42.680;23.364;2023-04-08T07:25:47;95303.56;;;9.20;65.63
5691;BME280;2870;42.680;23.364;2023-04-08T07:28:13;95291.81;;;9.00;66.10
5691;BME280;2870;42.680;23.364;2023-04-08T07:30:40;95293.03;;;9.13;66.20
5691;BME280;2870;42.680;23.364;2023-04-08T07:33:07;95300.59;;;9.46;66.36
5691;BME280;2870;42.680;23.364;2023-04-08T07:35:34;95303.66;;;9.35;65.41
5691;BME280;2870;42.680;23.364;2023-04-08T07:38:02;95299.91;;;9.53;67.12
5691;BME280;2870;42.680;23.364;2023-04-08T07:40:29;95299.59;;;9.36;66.60
5691;BME280;2870;42.680;23.364;2023-04-08T07:42:57;95304.31;;;9.98;64.63
5691;BME280;2870;42.680;23.364;2023-04-08T07:45:24;95298.06;;;10.21;63.11
5691;BME280;2870;42.680;23.364;2023-04-08T07:47:51;95304.75;;;10.10;64.30
5691;BME280;2870;42.680;23.364;2023-04-08T07:50:17;95301.81;;;9.87;64.85
5691;BME280;2870;42.680;23.364;2023-04-08T07:52:44;95306.19;;;10.32;64.93
5691;BME280;2870;42.680;23.364;2023-04-08T07:55:11;95307.78;;;10.56;62.86
5691;BME280;2870;42.680;23.364;2023-04-08T07:57:38;95312.56;;;10.92;61.45
5691;BME280;2870;42.680;23.364;2023-04-08T08:00:07;95321.56;;;11.05;61.53
5691;BME280;2870;42.680;23.364;2023-04-08T08:02:34;95318.34;;;10.86;61.52
5691;BME280;2870;42.680;23.364;2023-04-08T08:05:01;95317.28;;;11.12;60.50
5691;BME280;2870;42.680;23.364;2023-04-08T08:07:28;95324.31;;;10.75;60.29
5691;BME280;2870;42.680;23.364;2023-04-08T08:09:55;95320.56;;;10.72;60.50
5691;BME280;2870;42.680;23.364;2023-04-08T08:12:22;95325.56;;;10.58;61.27
5691;BME280;2870;42.680;23.364;2023-04-08T08:14:49;95332.97;;;10.92;59.67
5691;BME280;2870;42.680;23.364;2023-04-08T08:17:20;95332.94;;;10.84;59.90
5691;BME280;2870;42.680;23.364;2023-04-08T08:19:47;95322.16;;;11.27;60.22
5691;BME280;2870;42.680;23.364;2023-04-08T08:22:14;95319.38;;;11.42;59.30
5691;BME280;2870;42.680;23.364;2023-04-08T08:24:41;95325.56;;;11.48;58.03
5691;BME280;2870;42.680;23.364;2023-04-08T08:27:09;95317.09;;;12.02;56.30
5691;BME280;2870;42.680;23.364;2023-04-08T08:29:35;95327.69;;;12.41;55.49
5691;BME280;2870;42.680;23.364;2023-04-08T08:32:02;95323.41;;;12.33;55.72
5691;BME280;2870;42.680;23.364;2023-04-08T08:34:30;95325.72;;;11.96;56.01
5691;BME280;2870;42.680;23.364;2023-04-08T08:36:57;95327.59;;;11.55;58.30
5691;BME280;2870;42.680;23.364;2023-04-08T08:39:25;95319.22;;;11.86;57.09
5691;BME280;2870;42.680;23.364;2023-04-08T08:41:51;95330.81;;;11.90;57.71
5691;BME280;2870;42.680;23.364;2023-04-08T08:44:20;95333.06;;;11.68;56.58
5691;BME280;2870;42.680;23.364;2023-04-08T08:46:47;95332.66;;;11.49;59.83
5691;BME280;2870;42.680;23.364;2023-04-08T08:49:14;95331.94;;;11.41;58.37
5691;BME280;2870;42.680;23.364;2023-04-08T08:51:44;95323.97;;;10.94;59.62
5691;BME280;2870;42.680;23.364;2023-04-08T08:54:12;95334.16;;;11.43;57.69
5691;BME280;2870;42.680;23.364;2023-04-08T08:56:40;95332.09;;;11.74;57.67
5691;BME280;2870;42.680;23.364;2023-04-08T08:59:07;95340.16;;;11.85;57.13
5691;BME280;2870;42.680;23.364;2023-04-08T09:01:36;95337.34;;;11.62;59.05
5691;BME280;2870;42.680;23.364;2023-04-08T09:04:11;95333.97;;;11.48;61.20
5691;BME280;2870;42.680;23.364;2023-04-08T09:06:39;95333.69;;;10.85;59.99
5691;BME280;2870;42.680;23.364;2023-04-08T09:09:07;95331.88;;;11.03;60.10
5691;BME280;2870;42.680;23.364;2023-04-08T09:11:36;95338.63;;;11.07;61.08
5691;BME280;2870;42.680;23.364;2023-04-08T09:14:04;95335.25;;;11.01;59.98
5691;BME280;2870;42.680;23.364;2023-04-08T09:16:32;95327.75;;;11.04;60.77
5691;BME280;2870;42.680;23.364;2023-04-08T09:19:09;95335.56;;;10.90;60.52
5691;BME280;2870;42.680;23.364;2023-04-08T09:21:37;95342.06;;;11.82;58.94
5691;BME280;2870;42.680;23.364;2023-04-08T09:24:06;95331.53;;;12.06;56.67
5691;BME280;2870;42.680;23.364;2023-04-08T09:26:35;95336.00;;;12.80;55.10
5691;BME280;2870;42.680;23.364;2023-04-08T09:29:03;95329.75;;;12.89;53.50
5691;BME280;2870;42.680;23.364;2023-04-08T09:31:31;95335.44;;;12.73;53.46
5691;BME280;2870;42.680;23.364;2023-04-08T09:34:00;95329.91;;;12.51;54.05
5691;BME280;2870;42.680;23.364;2023-04-08T09:36:34;95333.38;;;12.18;56.71
5691;BME280;2870;42.680;23.364;2023-04-08T09:39:01;95324.72;;;12.32;55.24
5691;BME280;2870;42.680;23.364;2023-04-08T09:41:32;95317.09;;;12.09;55.28
5691;BME280;2870;42.680;23.364;2023-04-08T09:44:02;95311.28;;;12.15;56.42
5691;BME280;2870;42.680;23.364;2023-04-08T09:46:32;95321.88;;;12.39;55.23
5691;BME280;2870;42.680;23.364;2023-04-08T09:49:04;95313.31;;;12.78;53.44
5691;BME280;2870;42.680;23.364;2023-04-08T09:51:35;95319.91;;;13.63;53.48
5691;BME280;2870;42.680;23.364;2023-04-08T09:54:12;95313.41;;;14.54;51.26
5691;BME280;2870;42.680;23.364;2023-04-08T09:56:46;95320.06;;;14.94;49.92
5691;BME280;2870;42.680;23.364;2023-04-08T09:59:16;95315.31;;;15.50;48.46
5691;BME280;2870;42.680;23.364;2023-04-08T10:01:52;95307.81;;;14.29;48.48
5691;BME280;2870;42.680;23.364;2023-04-08T10:04:21;95316.88;;;15.07;47.78
5691;BME280;2870;42.680;23.364;2023-04-08T10:06:53;95300.63;;;15.61;46.34
5691;BME280;2870;42.680;23.364;2023-04-08T10:09:21;95297.22;;;14.55;48.72
5691;BME280;2870;42.680;23.364;2023-04-08T10:11:49;95298.09;;;15.02;47.66
5691;BME280;2870;42.680;23.364;2023-04-08T10:14:16;95300.78;;;15.27;48.00
5691;BME280;2870;42.680;23.364;2023-04-08T10:16:43;95290.47;;;14.68;47.63
5691;BME280;2870;42.680;23.364;2023-04-08T10:19:35;95289.47;;;14.38;49.41
5691;BME280;2870;42.680;23.364;2023-04-08T10:22:02;95287.00;;;14.25;48.39
5691;BME280;2870;42.680;23.364;2023-04-08T10:24:30;95297.56;;;13.82;48.70
5691;BME280;2870;42.680;23.364;2023-04-08T10:26:58;95272.84;;;12.65;51.52
5691;BME280;2870;42.680;23.364;2023-04-08T10:29:30;95288.84;;;12.88;52.11
5691;BME280;2870;42.680;23.364;2023-04-08T10:31:58;95289.00;;;12.57;52.65
5691;BME280;2870;42.680;23.364;2023-04-08T10:34:26;95275.88;;;13.25;52.41
5691;BME280;2870;42.680;23.364;2023-04-08T10:36:54;95285.94;;;13.78;51.06
5691;BME280;2870;42.680;23.364;2023-04-08T10:39:24;95286.78;;;12.88;51.43
5691;BME280;2870;42.680;23.364;2023-04-08T10:41:52;95287.41;;;13.37;51.65
5691;BME280;2870;42.680;23.364;2023-04-08T10:44:23;95278.25;;;12.23;53.18
5691;BME280;2870;42.680;23.364;2023-04-08T10:46:52;95273.78;;;12.12;54.19
5691;BME280;2870;42.680;23.364;2023-04-08T10:49:19;95271.22;;;12.47;53.08
5691;BME280;2870;42.680;23.364;2023-04-08T10:51:46;95269.59;;;12.77;52.97
5691;BME280;2870;42.680;23.364;2023-04-08T10:54:14;95256.00;;;13.15;51.56
5691;BME280;2870;42.680;23.364;2023-04-08T10:56:45;95265.13;;;12.66;51.64
5691;BME280;2870;42.680;23.364;2023-04-08T10:59:14;95257.78;;;13.03;51.28
5691;BME280;2870;42.680;23.364;2023-04-08T11:01:44;95264.13;;;13.36;49.37
5691;BME280;2870;42.680;23.364;2023-04-08T11:04:15;95263.53;;;13.63;49.66
5691;BME280;2870;42.680;23.364;2023-04-08T11:06:44;95249.31;;;13.95;48.51
5691;BME280;2870;42.680;23.364;2023-04-08T11:09:13;95263.44;;;13.53;48.59
5691;BME280;2870;42.680;23.364;2023-04-08T11:11:41;95248.16;;;13.39;50.82
5691;BME280;2870;42.680;23.364;2023-04-08T11:14:08;95250.16;;;13.46;50.03
5691;BME280;2870;42.680;23.364;2023-04-08T11:16:36;95240.63;;;12.84;50.88
5691;BME280;2870;42.680;23.364;2023-04-08T11:19:05;95247.81;;;12.77;50.11
5691;BME280;2870;42.680;23.364;2023-04-08T11:21:34;95228.13;;;13.02;49.35
5691;BME280;2870;42.680;23.364;2023-04-08T11:24:05;95234.94;;;13.24;50.74
5691;BME280;2870;42.680;23.364;2023-04-08T11:26:35;95236.41;;;13.50;48.50
5691;BME280;2870;42.680;23.364;2023-04-08T11:29:03;95237.78;;;13.41;47.97
5691;BME280;2870;42.680;23.364;2023-04-08T11:31:31;95225.16;;;13.25;47.74
5691;BME280;2870;42.680;23.364;2023-04-08T11:33:58;95217.53;;;13.10;48.10
5691;BME280;2870;42.680;23.364;2023-04-08T11:36:28;95225.72;;;13.66;47.85
5691;BME280;2870;42.680;23.364;2023-04-08T11:38:55;95221.44;;;13.65;48.93
5691;BME280;2870;42.680;23.364;2023-04-08T11:41:22;95237.66;;;13.57;48.11
5691;BME280;2870;42.680;23.364;2023-04-08T11:43:53;95211.59;;;13.91;48.30
5691;BME280;2870;42.680;23.364;2023-04-08T11:46:20;95207.78;;;13.96;46.89
5691;BME280;2870;42.680;23.364;2023-04-08T11:49:01;95218.63;;;13.82;46.40
5691;BME280;2870;42.680;23.364;2023-04-08T11:51:29;95211.69;;;13.41;47.46
5691;BME280;2870;42.680;23.364;2023-04-08T11:53:56;95210.38;;;13.42;46.68
5691;BME280;2870;42.680;23.364;2023-04-08T11:56:23;95211.41;;;13.71;45.75
5691;BME280;2870;42.680;23.364;2023-04-08T11:58:51;95207.38;;;13.40;45.44
5691;BME280;2870;42.680;23.364;2023-04-08T12:01:19;95199.97;;;13.87;45.37
5691;BME280;2870;42.680;23.364;2023-04-08T12:03:56;95196.50;;;13.78;45.90
5691;BME280;2870;42.680;23.364;2023-04-08T12:06:23;95189.84;;;13.84;46.16
5691;BME280;2870;42.680;23.364;2023-04-08T12:08:53;95188.44;;;13.92;46.52
5691;BME280;2870;42.680;23.364;2023-04-08T12:11:20;95189.06;;;14.35;45.93
5691;BME280;2870;42.680;23.364;2023-04-08T12:13:47;95182.41;;;13.96;46.39
5691;BME280;2870;42.680;23.364;2023-04-08T12:16:15;95180.69;;;14.27;45.37
5691;BME280;2870;42.680;23.364;2023-04-08T12:18:42;95180.31;;;13.96;46.20
5691;BME280;2870;42.680;23.364;2023-04-08T12:21:09;95191.22;;;14.71;44.95
5691;BME280;2870;42.680;23.364;2023-04-08T12:23:36;95184.94;;;14.46;44.60
5691;BME280;2870;42.680;23.364;2023-04-08T12:26:05;95190.09;;;14.40;43.60
5691;BME280;2870;42.680;23.364;2023-04-08T12:28:32;95188.31;;;14.17;43.63
5691;BME280;2870;42.680;23.364;2023-04-08T12:31:00;95179.72;;;13.81;45.20
5691;BME280;2870;42.680;23.364;2023-04-08T12:33:27;95174.84;;;13.98;44.63
5691;BME280;2870;42.680;23.364;2023-04-08T12:35:54;95177.66;;;13.98;44.46
5691;BME280;2870;42.680;23.364;2023-04-08T12:38:22;95171.75;;;14.04;45.67
5691;BME280;2870;42.680;23.364;2023-04-08T12:40:49;95170.19;;;13.93;46.43
5691;BME280;2870;42.680;23.364;2023-04-08T12:43:18;95165.59;;;13.29;47.19
5691;BME280;2870;42.680;23.364;2023-04-08T12:45:45;95164.28;;;12.80;48.00
5691;BME280;2870;42.680;23.364;2023-04-08T12:48:13;95153.19;;;12.57;49.71
5691;BME280;2870;42.680;23.364;2023-04-08T12:50:40;95175.94;;;12.76;50.29
5691;BME280;2870;42.680;23.364;2023-04-08T12:53:07;95171.31;;;12.31;52.30
5691;BME280;2870;42.680;23.364;2023-04-08T12:55:33;95172.78;;;12.39;53.36
5691;BME280;2870;42.680;23.364;2023-04-08T12:58:00;95165.97;;;12.50;52.59
5691;BME280;2870;42.680;23.364;2023-04-08T13:00:29;95175.16;;;12.18;53.06
5691;BME280;2870;42.680;23.364;2023-04-08T13:02:55;95169.22;;;12.06;53.64
5691;BME280;2870;42.680;23.364;2023-04-08T13:05:22;95171.22;;;12.21;52.96
5691;BME280;2870;42.680;23.364;2023-04-08T13:07:49;95166.13;;;12.19;52.91
5691;BME280;2870;42.680;23.364;2023-04-08T13:10:16;95155.91;;;12.39;52.31
5691;BME280;2870;42.680;23.364;2023-04-08T13:12:43;95171.41;;;12.81;51.85
5691;BME280;2870;42.680;23.364;2023-04-08T13:15:10;95149.78;;;12.58;52.13
5691;BME280;2870;42.680;23.364;2023-04-08T13:17:38;95177.00;;;12.88;51.84
5691;BME280;2870;42.680;23.364;2023-04-08T13:20:07;95173.53;;;12.72;51.04